Colorado AWOS List, Phone Numbers, Maps

USA |  
| Search AWOS

Rocky Mountain States: Montana | Wyoming | Colorado | New Mexico

Complete weather reports: Colorado

Legend: KFNL = METAR available Follow your local AWOS on AV Mobile = METAR available on AV Mobile
Station Colorado Location Frequency Phone
KAKOFAA ID AKO, ASOS, KAKO 022253Z AUTO 18010KT 10SM CLR 29/09 A2996 RMK AO2 SLP093 T02890089 Follow KAKO on AV Mobile COLORADO PLAINS REGIONAL 135.475 970-345-2320
KALSFAA ID ALS, ASOS, KALS 022252Z AUTO 18013KT 10SM CLR 29/M03 A3015 Follow KALS on AV Mobile SAN LUIS VALLEY REGIONAL 135.175 719-589-5669
KASEFAA ID ASE, ASOS, KASE 022253Z VRB04G15KT 10SM FEW110 26/M01 A3019 Follow KASE on AV Mobile ASPEN-PITKIN COUNTY AIRPORT 120.400 970-925-9168
KBKFFAA ID BKF, KBKF 022258Z 08009KT 10SM FEW080 30/02 A3000 Follow KBKF on AV Mobile Aurora, Buckley Air Force Base Airport
K7BMFAA ID 7BM, AWOS-3, K7BM 022314Z AUTO 30008G17KT 10SM SCT100 24/M12 A3035 RMK AO2 Follow K7BM on AV Mobile Cottonwood Pass 132.050 303-512-4919
KBDUFAA ID BDU, AWOS-3, KBDU 022316Z AUTO 33005KT 10SM CLR 28/07 A2996 RMK AO2 Follow KBDU on AV Mobile Boulder Municipal Airport 118.825 303-541-9540
KAEJFAA ID AEJ, AWOS-3, KAEJ 022315Z AUTO 26012G17KT 10SM CLR 26/M06 A3018 RMK AO2 T02611060 Follow KAEJ on AV Mobile Central Colorado Regional Airport 132.925 719-395-2599
KITRFAA ID ITR, ASOS, KITR 022253Z AUTO 19016G22KT 10SM CLR 29/09 A2998 RMK AO2 SLP102 T02940094 Follow KITR on AV Mobile Kit Carson County Airport 135.225 719-346-7036
K1V6FAA ID 1V6, AWOS-3, K1V6 022310Z AUTO 08012G17KT 10SM CLR 33/08 A2997 RMK AO2 Follow K1V6 on AV Mobile CANON CITY 120.025
KAFFFAA ID AFF, KAFF 022258Z 12010KT 10SM CLR 26/11 A3008 RMK AO2A SLP109 T02550105 Follow KAFF on AV Mobile Air Force Academy
KCOSFAA ID COS, ASOS, KCOS 022254Z 12016KT 10SM SCT120 SCT240 27/10 A3007 Follow KCOS on AV Mobile COLORADO SPRINGS MUNI 125.000 719-637-9696
KFLYFAA ID FLY, AWOS-3PT, KFLY 022315Z AUTO 15009KT 10SM CLR 25/10 A3014 RMK AO2 T02490095 Follow KFLY on AV Mobile Meadowlake Airport, Peyton, CO 118.450 719-683-5371
KCCUFAA ID CCU, AWOS-3, KCCU 022316Z AUTO 27021KT 10SM SCT065 16/M03 A3052 RMK AO2 Follow KCCU on AV Mobile Copper Mountain, Red Cliff Pass 118.075 970-968-1715
KCEZFAA ID CEZ, ASOS, KCEZ 022253Z AUTO 29009KT 10SM CLR 31/M01 A3007 RMK AO2 SLP107 T03111006 $ Follow KCEZ on AV Mobile CORTEZ MONTEZUMA COUNTY AIRPORT 135.625 970-564-0193
KCAGFAA ID CAG, ASOS, KCAG 022253Z AUTO 26014G27KT 10SM CLR 28/01 A3005 Follow KCAG on AV Mobile CRAIG MOFFAT AIRPORT 135.425 970-824-2373
KAJZFAA ID AJZ, AWOS-3, KAJZ 022315Z AUTO 14004KT 10SM CLR 34/00 A2997 RMK AO2 T03400002 Follow KAJZ on AV Mobile Blake Field Airport 134.000 970-874-3251
KDNRICAO ID KDNR Denver / Stapleton International, Co.
KAPAFAA ID APA, ASOS, KAPA 022253Z 13010G16KT 10SM FEW150 29/M01 A3001 RMK AO2 SLP099 T02941011 Follow KAPA on AV Mobile DENVER CENTENNIAL AIRPORT 120.300 303-706-9098
KDENFAA ID DEN, ASOS, KDEN 022253Z 08007KT 10SM FEW090 30/04 A2997 Follow KDEN on AV Mobile DENVER INTERNATIONAL AIRPORT 125.600 303-342-0838
KFTGFAA ID FTG, AWOS-3, KFTG 022148Z 00000KT 40SM FEW100 31/00 A3001 Follow KFTG on AV Mobile Front Range Airport 119.025 303-261-9104
KBJCFAA ID BJC, AWOS-3, KBJC 022253Z VRB03KT 30SM SCT060 30/03 A3000 Follow KBJC on AV Mobile Rocky Mountain Metro Airport 126.250 720-887-8067
K4V5ICAO ID K4V5 Durango Aviation Weather Reporting Station
KDROFAA ID DRO, ASOS, KDRO 022253Z AUTO 18007KT 10SM CLR 29/M02 A3011 RMK AO2 SLP113 T02941017 Follow KDRO on AV Mobile DURANGO-LA PLATA COUNTY AIRPORT 120.625 970-259-3579
KEGEFAA ID EGE, AWOS-3, KEGE 022250Z 27019G24KT 10SM FEW130 28/M01 A3010 Follow KEGE on AV Mobile Eagle County Regional 135.575 970-524-7386
CO90FAA ID CO90, ASOS, KEQA 022335Z AUTO 17007KT 10SM CLR 30/18 A2992 RMK AO2 Follow  on AV Mobile USAF Academy Bullseye Aux Airstrip 118.325 719-683-3346
K0COFAA ID 0CO, AWOS-3, K0CO 022315Z AUTO 27021G31KT 10SM CLR 11/10 A3056 RMK AO2 Follow K0CO on AV Mobile EMPIRE 134.325
KEIKFAA ID EIK, AWOS-3, KEIK 022315Z AUTO 11005KT 10SM CLR 31/02 A2994 RMK AO2 T03050016 Follow KEIK on AV Mobile Erie Municipal Airport 133.825 303-604-4339
KFCSFAA ID FCS, KFCS 022258Z AUTO 12013KT 10SM CLR 29/09 A3003 RMK AO2 SLP111 T02860092 Follow KFCS on AV Mobile Fort Carson
KFCLICAO ID KFCL Fort Collins Supplementary Aviation Weather Reporting Station
KFNLFAA ID FNL, AWOS-3, KFNL 022315Z AUTO 16008KT 10SM CLR 30/06 A2992 RMK AO1 Follow KFNL on AV Mobile Fort Collins/Loveland, Fort Collins-Loveland Municipal Airport 135.075 970-669-9187
KFMMFAA ID FMM, AWOS-3, KFMM 022315Z AUTO 13008KT 10SM CLR 29/11 A2993 RMK AO2 T02940109 PWINO Follow KFMM on AV Mobile Fort Morgan Municipal Airport 132.950 970-867-4823
KGNBFAA ID GNB, AWOS-1 Granby-Grand County Airport 119.925 970-887-1803
KGJTFAA ID GJT, ASOS, KGJT 022253Z 31012KT 10SM CLR 31/02 A2995 Follow KGJT on AV Mobile GRAND JUNCTION WALKER FIELD 118.550 970-245-7881
KGXYFAA ID GXY, AWOS-3, KGXY 022315Z AUTO 13007KT 10SM CLR 30/03 A2993 RMK AO1 Follow KGXY on AV Mobile Greeley, Greeley-Weld County Airport 135.175 970-352-3511
K2V9ICAO ID K2V9 Gunnison Aviation Weather Reporting Station
KGUCFAA ID GUC, AWOS-3, KGUC 022315Z AUTO 28013G17KT 10SM CLR 26/00 A3019 RMK AO1 Follow KGUC on AV Mobile Gunnison, Gunnison-Crested Butte Regional Airport 135.075 970-641-3240
KHDNFAA ID HDN, AWOS-3, KHDN 022315Z AUTO 29020G24KT 10SM CLR 27/M01 A3006 RMK AO1 Follow KHDN on AV Mobile Hayden, Yampa Valley Airport 119.275 970-276-3690
KHEQFAA ID HEQ, AWOS-3, KHEQ 022315Z AUTO 18013G17KT 10SM CLR 29/12 A2991 RMK AO2 Follow KHEQ on AV Mobile Holyoke Airport 119.275 970-854-3679
K20VFAA ID 20V, AWOS-3, K20V 022317Z AUTO 22015G20KT 10SM CLR 27/M08 A3014 RMK AO2 Follow K20V on AV Mobile Kremmling, Mc Elroy Airfield 118.425 970-724-9659
KLHXFAA ID LHX, ASOS, KLHX 022253Z AUTO 14011KT 10SM CLR 33/08 A2993 RMK AO2 SLP069 T03280083 Follow KLHX on AV Mobile LA JUNTA MUNICIPAL AIRPORT 135.525 719-384-5961
KVTPFAA ID VTP, AWOS-3, KVTP 201307Z AUTO 20012G23KT 160V240 10SM SCT080 BKN100 11/06 A3028 RMK AO2 Follow KVTP on AV Mobile La Veta Mountain, La Veta Pass 119.925 719-587-3120
KLAAFAA ID LAA, ASOS, KLAA 022253Z AUTO 14017G21KT 9SM CLR 31/12 A2993 RMK AO2 SLP083 T03110122 Follow KLAA on AV Mobile LAMAR MUNICIPAL AIRPORT 135.625 719-336-3854
KLXVFAA ID LXV, ASOS, KLXV 022253Z AUTO 31011G16KT 10SM FEW090 20/M03 A3035 Follow KLXV on AV Mobile LEADVILLE LAKE CO 118.375 719-486-2735
KLICFAA ID LIC, ASOS, KLIC 022255Z AUTO 16013G19KT 10SM CLR 27/09 A3003 RMK AO2 SLP101 T02720094 Follow KLIC on AV Mobile LIMON MUNICIPAL AIRPORT 121.125 719-775-0515
KLMOFAA ID LMO, AWOS-3, KLMO 022314Z AUTO 36005KT 10SM CLR 32/07 A2996 RMK AO2 T03150072 Follow KLMO on AV Mobile Vance Brand Airport 120.000 303-684-7545
KEEOFAA ID EEO, ASOS, KEEO 022253Z AUTO 22011KT 10SM CLR 28/01 A3007 RMK AO2 SLP101 T02830006 Follow KEEO on AV Mobile MEEKER AIRPORT 135.525 970-878-5036
KMYPFAA ID MYP, AWOS-3, KMYP 022223Z AUTO 29027G35KT 10SM CLR 16/M03 A3062 RMK AO2 Follow KMYP on AV Mobile Salida Mountain, Monarch Pass 124.175 719-539-4436
KMTJFAA ID MTJ, ASOS, KMTJ 022253Z AUTO VRB04KT 10SM CLR 31/00 A3003 RMK AO2 SLP089 T03060000 Follow KMTJ on AV Mobile MONTROSE REGIONAL AIRPORT 135.225 970-249-1534
KMNHFAA ID MNH, AWOS-3, KMNH 022313Z AUTO 17010KT 10SM CLR 24/08 A3013 RMK AO2 Follow KMNH on AV Mobile Elbert Mountain, Monument Pass 134.375 303-648-3479
K3MWFAA ID 3MW, AWOS-3, K3MW 211630Z AUTO RMK AO2 TSNO PWINO Follow K3MW on AV Mobile Mount Werner 127.125 970-871-5640
KCRVICAO ID KCRV Nederland Mountain, Corona Pass
KAIBFAA ID AIB, AWOS-3, KAIB 022315Z AUTO 23014G18KT 10SM SCT120 31/00 A3007 RMK AO2 Follow KAIB on AV Mobile Hopkins Field Airport 132.525 970-864-2325
KPSOFAA ID PSO, AWOS-3, KPSO 022315Z AUTO 22012G16KT 10SM CLR 28/M06 A3019 RMK AO2 T02831064 Follow KPSO on AV Mobile Stevens Field Airport 127.175 970-731-0365
KPEFICAO ID KPEF Peterson Air Force Base
KPUXICAO ID KPUX Pueblo NEXRAD
KPUBFAA ID PUB, ASOS, KPUB 022253Z AUTO 12016KT 10SM CLR 32/09 A2993 Follow KPUB on AV Mobile PUEBLO MEMORIAL AIRPORT 125.250 719-948-2803
K1V1ICAO ID K1V1 Rifle Aviation Weather Reporting Station
KRILFAA ID RIL, ASOS, KRIL 022253Z AUTO 28011G16KT 10SM CLR 30/00 A3001 RMK AO2 PK WND 27026/2216 SLP098 T03000000 Follow KRIL on AV Mobile RIFLE GARFIELD COUNTY RGNL 135.275 970-625-2206
K04VFAA ID 04V, AWOS-3, K04V 022304Z AUTO 19008KT 10SM BKN120 26/02 A3019 RMK AO2 Follow K04V on AV Mobile Saguache, Saguache Municipal Airport 118.625 719-655-2229
KS29ICAO ID KS29 Salida
KANKFAA ID ANK, AWOS-3, KANK 022315Z AUTO 28008G11KT 10SM CLR 29/M03 A3021 RMK AO1 T02901034 Follow KANK on AV Mobile Harriet Alexander Field Airport 133.850 719-539-5268
KSPDICAO ID KSPD, KSPD 022256Z AUTO 14014KT 29/15 A3000 RMK AO1 SLP091 T02890150 Follow KSPD on AV Mobile SPRINGFIELD COMANCHE NATL
KSBSFAA ID SBS, AWOS-3, KSBS 022314Z AUTO 25012G18KT 10SM CLR 26/02 A3010 RMK AO1 T02570019 Follow KSBS on AV Mobile Steamboat Springs 118.325 970-879-7794
KSTKFAA ID STK, AWOS-3, KSTK 022310Z AUTO 19006KT 10SM CLR 31/15 A2989 RMK AO2 Follow KSTK on AV Mobile Sterling Municipal Airport 118.525 970-526-3009
K5SMFAA ID 5SM, AWOS-3, K5SM 022318Z AUTO 00000KT 10SM SCT070 19/03 A3045 RMK AO2 Follow K5SM on AV Mobile Sunlight 126.075 970-384-3380
KTEXFAA ID TEX, AWOS-3, KTEX 022316Z AUTO 28006G16KT 10SM SCT100 23/M02 A3031 RMK AO2 Follow KTEX on AV Mobile Telluride, Telluride Regional Airport 118.325 970-728-1534
KTADFAA ID TAD, ASOS, KTAD 022254Z AUTO 11018G26KT 10SM FEW120 30/10 A3002 RMK AO2 PK WND 09026/2246 SLP086 T03000100 Follow KTAD on AV Mobile Trinidad, Perry Stokes Airport 119.025 719-845-1156
K33VFAA ID 33V, AWOS-3, K33V 022315Z AUTO 25015G20KT 10SM SCT090 22/00 A3020 RMK AO2 Follow K33V on AV Mobile WALDEN 118.625 970-723-4513
4V1FAA ID 4V1, AWOS-3, KEQA 022335Z AUTO 17007KT 10SM CLR 30/18 A2992 RMK AO2 Follow  on AV Mobile Spanish Peaks Airfield 123.600 719-738-1053
K4BMFAA ID 4BM, AWOS-3, K4BM 260156Z AUTO 20008KT 7SM RA SCT035 SCT055 BKN090 08/03 A3056 RMK AO2 Follow K4BM on AV Mobile Wilkerson Pass 132.3 303-512-4418
KC96ICAO ID KC96 Winter Park Resort
KCPWFAA ID CPW, AWOS-3, KCPW 022320Z AUTO 22016G22KT 10SM SCT085 15/M01 A3054 RMK AO2 Follow KCPW on AV Mobile Pagosa Springs, Wolf Creek Pass 121.125 970-264-2180
K2V5FAA ID 2V5, AWOS-3, K2V5 022315Z AUTO 18014G20KT 10SM 31/11 A2992 RMK AO2 T03060105 Follow K2V5 on AV Mobile Wray Municipal Airport 118.250 970-332-5930

Click on the AV Mobile icon AV Mobile icon by any station to follow that AWOS feed on AirportView.net Mobile.

Legend: Commercial service airport with AWOS Commercial Airport AWOSNon-Commercial service airport with AWOS Non-Commercial Airport AWOS
Airport AWOS - Click symbol for weather report Fort Morgan Municipal Airport KFMM 022315Z AUTO 13008KT 10SM CLR 29/11 A2993 RMK AO2 T02940109 PWINO Hopkins Field Airport KAIB 022315Z AUTO 23014G18KT 10SM SCT120 31/00 A3007 RMK AO2 Telluride, Telluride Regional Airport KTEX 022316Z AUTO 28006G16KT 10SM SCT100 23/M02 A3031 RMK AO2 Greeley, Greeley-Weld County Airport KGXY 022315Z AUTO 13007KT 10SM CLR 30/03 A2993 RMK AO1 Front Range Airport KFTG 022148Z 00000KT 40SM FEW100 31/00 A3001 Rocky Mountain Metro Airport KBJC 022253Z VRB03KT 30SM SCT060 30/03 A3000 DENVER CENTENNIAL AIRPORT KAPA 022253Z 13010G16KT 10SM FEW150 29/M01 A3001 RMK AO2 SLP099 T02941011 DENVER INTERNATIONAL AIRPORT KDEN 022253Z 08007KT 10SM FEW090 30/04 A2997 Fort Collins/Loveland, Fort Collins-Loveland Municipal Airport KFNL 022315Z AUTO 16008KT 10SM CLR 30/06 A2992 RMK AO1 Boulder Municipal Airport KBDU 022316Z AUTO 33005KT 10SM CLR 28/07 A2996 RMK AO2 Vance Brand Airport KLMO 022314Z AUTO 36005KT 10SM CLR 32/07 A2996 RMK AO2 T03150072 Sterling Municipal Airport KSTK 022310Z AUTO 19006KT 10SM CLR 31/15 A2989 RMK AO2 Holyoke Airport KHEQ 022315Z AUTO 18013G17KT 10SM CLR 29/12 A2991 RMK AO2 COLORADO PLAINS REGIONAL KAKO 022253Z AUTO 18010KT 10SM CLR 29/09 A2996 RMK AO2 SLP093 T02890089 Kit Carson County Airport KITR 022253Z AUTO 19016G22KT 10SM CLR 29/09 A2998 RMK AO2 SLP102 T02940094 LIMON MUNICIPAL AIRPORT KLIC 022255Z AUTO 16013G19KT 10SM CLR 27/09 A3003 RMK AO2 SLP101 T02720094 COLORADO SPRINGS MUNI KCOS 022254Z 12016KT 10SM SCT120 SCT240 27/10 A3007 LAMAR MUNICIPAL AIRPORT KLAA 022253Z AUTO 14017G21KT 9SM CLR 31/12 A2993 RMK AO2 SLP083 T03110122 LA JUNTA MUNICIPAL AIRPORT KLHX 022253Z AUTO 14011KT 10SM CLR 33/08 A2993 RMK AO2 SLP069 T03280083 Trinidad, Perry Stokes Airport KTAD 022254Z AUTO 11018G26KT 10SM FEW120 30/10 A3002 RMK AO2 PK WND 09026/2246 SLP086 T03000100 PUEBLO MEMORIAL AIRPORT KPUB 022253Z AUTO 12016KT 10SM CLR 32/09 A2993 CANON CITY 1V6 SAN LUIS VALLEY REGIONAL KALS 022252Z AUTO 18013KT 10SM CLR 29/M03 A3015 Saguache, Saguache Municipal Airport K04V 022304Z AUTO 19008KT 10SM BKN120 26/02 A3019 RMK AO2 Granby-Grand County Airport KGNB WALDEN 33V Steamboat Springs KSBS 022314Z AUTO 25012G18KT 10SM CLR 26/02 A3010 RMK AO1 T02570019 Hayden, Yampa Valley Airport KHDN 022315Z AUTO 29020G24KT 10SM CLR 27/M01 A3006 RMK AO1 Kremmling, Mc Elroy Airfield K20V 022317Z AUTO 22015G20KT 10SM CLR 27/M08 A3014 RMK AO2 LEADVILLE LAKE CO KLXV 022253Z AUTO 31011G16KT 10SM FEW090 20/M03 A3035 Eagle County Regional KEGE 022250Z 27019G24KT 10SM FEW130 28/M01 A3010 CRAIG MOFFAT AIRPORT KCAG 022253Z AUTO 26014G27KT 10SM CLR 28/01 A3005 MEEKER AIRPORT KEEO 022253Z AUTO 22011KT 10SM CLR 28/01 A3007 RMK AO2 SLP101 T02830006 ASPEN-PITKIN COUNTY AIRPORT KASE 022253Z VRB04G15KT 10SM FEW110 26/M01 A3019 Gunnison, Gunnison-Crested Butte Regional Airport KGUC 022315Z AUTO 28013G17KT 10SM CLR 26/00 A3019 RMK AO1 DURANGO-LA PLATA COUNTY AIRPORT  KDRO 022253Z AUTO 18007KT 10SM CLR 29/M02 A3011 RMK AO2 SLP113 T02941017 Stevens Field Airport KPSO 022315Z AUTO 22012G16KT 10SM CLR 28/M06 A3019 RMK AO2 T02831064 CORTEZ MONTEZUMA COUNTY AIRPORT  KCEZ 022253Z AUTO 29009KT 10SM CLR 31/M01 A3007 RMK AO2 SLP107 T03111006 $ MONTROSE REGIONAL AIRPORT KMTJ 022253Z AUTO VRB04KT 10SM CLR 31/00 A3003 RMK AO2 SLP089 T03060000 RIFLE GARFIELD COUNTY RGNL KRIL 022253Z AUTO 28011G16KT 10SM CLR 30/00 A3001 RMK AO2 PK WND 27026/2216 SLP098 T03000000 GRAND JUNCTION WALKER FIELD KGJT 022253Z 31012KT 10SM CLR 31/02 A2995 Blake Field Airport KAJZ 022315Z AUTO 14004KT 10SM CLR 34/00 A2997 RMK AO2 T03400002 Central Colorado Regional Airport KAEJ 022315Z AUTO 26012G17KT 10SM CLR 26/M06 A3018 RMK AO2 T02611060 Harriet Alexander Field Airport KANK 022315Z AUTO 28008G11KT 10SM CLR 29/M03 A3021 RMK AO1 T02901034 Erie Municipal Airport KEIK 022315Z AUTO 11005KT 10SM CLR 31/02 A2994 RMK AO2 T03050016 Wray Municipal Airport K2V5 022315Z AUTO 18014G20KT 10SM 31/11 A2992 RMK AO2 T03060105
Legend: High Mountain AWOS Mountain Pass AWOS
Mountain Pass AWOS - Click symbol for weather report Pagosa Springs, Wolf Creek Pass KCPW 022320Z AUTO 22016G22KT 10SM SCT085 15/M01 A3054 RMK AO2 Saguache, Saguache Municipal Airport K04V 022304Z AUTO 19008KT 10SM BKN120 26/02 A3019 RMK AO2 Kremmling, Mc Elroy Airfield K20V 022317Z AUTO 22015G20KT 10SM CLR 27/M08 A3014 RMK AO2 La Veta Mountain, La Veta Pass KVTP 201307Z AUTO 20012G23KT 160V240 10SM SCT080 BKN100 11/06 A3028 RMK AO2 Salida Mountain, Monarch Pass KMYP 022223Z AUTO 29027G35KT 10SM CLR 16/M03 A3062 RMK AO2 Cottonwood Pass K7BM 022314Z AUTO 30008G17KT 10SM SCT100 24/M12 A3035 RMK AO2 Elbert Mountain, Monument Pass KMNH 022313Z AUTO 17010KT 10SM CLR 24/08 A3013 RMK AO2 Wilkerson Pass K4BM 260156Z AUTO 20008KT 7SM RA SCT035 SCT055 BKN090 08/03 A3056 RMK AO2 Copper Mountain, Red Cliff Pass KCCU 022316Z AUTO 27021KT 10SM SCT065 16/M03 A3052 RMK AO2 EMPIRE 0CO Sunlight K5SM 022318Z AUTO 00000KT 10SM SCT070 19/03 A3045 RMK AO2 Mount Werner K3MW 211630Z AUTO RMK AO2 TSNO PWINO
Garmin aera 796 $1999 at Avionics Specialists LLC
Bose A20 Aviation Headsets $995 at Avionics Specialists LLC